createdAt,value
2022-12-03T00:02:26.047Z,11.85
2022-12-03T00:04:53.584Z,10.25
2022-12-03T00:07:21.041Z,13.70
2022-12-03T00:09:51.133Z,10.57
2022-12-03T00:12:18.504Z,10.23
2022-12-03T00:14:45.760Z,12.02
2022-12-03T00:17:13.008Z,11.48
2022-12-03T00:19:40.358Z,10.18
2022-12-03T00:22:07.682Z,14.13
2022-12-03T00:24:34.966Z,9.30
2022-12-03T00:27:02.609Z,9.13
2022-12-03T00:29:29.878Z,11.68
2022-12-03T00:31:57.184Z,10.85
2022-12-03T00:34:24.434Z,11.45
2022-12-03T00:36:51.714Z,11.50
2022-12-03T00:39:18.972Z,14.02
2022-12-03T00:41:46.399Z,13.00
2022-12-03T00:44:13.696Z,9.48
2022-12-03T00:46:41.094Z,8.63
2022-12-03T00:49:08.470Z,9.85
2022-12-03T00:51:35.989Z,11.27
2022-12-03T00:54:03.370Z,11.05
2022-12-03T00:56:30.636Z,11.13
2022-12-03T00:58:57.914Z,10.60
2022-12-03T01:01:25.219Z,13.38
2022-12-03T01:03:52.490Z,11.27
2022-12-03T01:06:19.732Z,10.45
2022-12-03T01:08:47.066Z,9.32
2022-12-03T01:11:33.232Z,9.45
2022-12-03T01:14:00.536Z,10.32
2022-12-03T01:16:28.034Z,9.70
2022-12-03T01:18:55.454Z,8.13
2022-12-03T01:21:22.806Z,9.57
2022-12-03T01:23:50.053Z,8.95
2022-12-03T01:26:17.320Z,9.73
2022-12-03T01:28:44.741Z,8.27
2022-12-03T01:31:30.574Z,8.13
2022-12-03T01:33:57.935Z,10.68
2022-12-03T01:36:25.230Z,10.13
2022-12-03T01:38:52.516Z,11.05
2022-12-03T01:41:20.515Z,11.63
2022-12-03T01:43:48.249Z,11.05
2022-12-03T01:46:17.582Z,11.52
2022-12-03T01:48:45.286Z,11.68
2022-12-03T01:51:13.760Z,11.75
2022-12-03T01:53:41.172Z,13.63
2022-12-03T01:56:09.863Z,10.10
2022-12-03T01:58:37.108Z,10.38
2022-12-03T02:01:07.520Z,9.98
2022-12-03T02:03:35.461Z,12.52
2022-12-03T02:06:02.780Z,8.02
2022-12-03T02:08:37.458Z,10.85
2022-12-03T02:11:23.258Z,10.70
2022-12-03T02:13:52.202Z,9.25
2022-12-03T02:16:19.670Z,9.98
2022-12-03T02:18:47.188Z,9.18
2022-12-03T02:21:23.705Z,9.63
2022-12-03T02:23:59.139Z,10.18
2022-12-03T02:26:26.485Z,9.60
2022-12-03T02:28:54.003Z,8.65
2022-12-03T02:31:21.502Z,14.13
2022-12-03T02:33:48.945Z,12.73
2022-12-03T02:36:16.471Z,10.82
2022-12-03T02:38:44.548Z,11.52
2022-12-03T02:41:33.489Z,11.32
2022-12-03T02:44:00.874Z,12.75
2022-12-03T02:46:28.259Z,9.52
2022-12-03T02:48:55.689Z,11.30
2022-12-03T02:51:23.103Z,10.98
2022-12-03T02:53:51.619Z,9.65
2022-12-03T02:56:20.559Z,9.80
2022-12-03T02:58:48.956Z,10.20
2022-12-03T03:01:17.127Z,9.75
2022-12-03T03:03:45.522Z,11.32
2022-12-03T03:06:13.104Z,10.10
2022-12-03T03:08:42.430Z,11.48
2022-12-03T03:11:09.655Z,8.63
2022-12-03T03:13:37.729Z,8.75
2022-12-03T03:16:05.917Z,9.32
2022-12-03T03:18:34.152Z,12.35
2022-12-03T03:21:01.642Z,9.82
2022-12-03T03:23:29.225Z,9.18
2022-12-03T03:26:01.126Z,11.82
2022-12-03T03:28:29.358Z,10.10
2022-12-03T03:30:57.340Z,10.15
2022-12-03T03:33:24.605Z,7.47
2022-12-03T03:35:51.930Z,8.30
2022-12-03T03:38:20.150Z,7.63
2022-12-03T03:40:48.938Z,8.27
2022-12-03T03:43:16.302Z,11.45
2022-12-03T03:45:44.493Z,7.43
2022-12-03T03:48:12.986Z,10.65
2022-12-03T03:50:40.929Z,10.60
2022-12-03T03:53:08.331Z,9.60
2022-12-03T03:55:35.680Z,9.98
2022-12-03T03:58:03.017Z,9.02
2022-12-03T04:00:31.190Z,12.13
2022-12-03T04:02:58.455Z,7.75
2022-12-03T04:05:25.823Z,9.65
2022-12-03T04:07:53.191Z,9.48
2022-12-03T04:10:39.124Z,9.52
2022-12-03T04:13:06.907Z,9.32
2022-12-03T04:15:34.165Z,8.80
2022-12-03T04:18:20.437Z,7.10
2022-12-03T04:20:47.766Z,7.53
2022-12-03T04:23:15.106Z,8.70
2022-12-03T04:26:00.936Z,6.90
2022-12-03T04:28:46.682Z,8.75
2022-12-03T04:31:32.909Z,8.82
2022-12-03T04:34:18.934Z,9.38
2022-12-03T04:36:46.288Z,9.23
2022-12-03T04:39:13.587Z,8.60
2022-12-03T04:41:40.877Z,8.90
2022-12-03T04:44:27.019Z,8.60
2022-12-03T04:46:54.418Z,7.97
2022-12-03T04:49:22.131Z,9.73
2022-12-03T04:51:49.451Z,8.10
2022-12-03T04:54:16.768Z,9.32
2022-12-03T04:56:44.121Z,7.88
2022-12-03T04:59:16.042Z,7.93
2022-12-03T05:01:44.102Z,8.60
2022-12-03T05:04:12.130Z,7.88
2022-12-03T05:06:39.356Z,7.82
2022-12-03T05:09:06.662Z,7.10
2022-12-03T05:11:33.927Z,7.32
2022-12-03T05:14:01.198Z,8.13
2022-12-03T05:16:28.552Z,5.88
2022-12-03T05:18:55.922Z,6.53
2022-12-03T05:21:23.256Z,8.50
2022-12-03T05:23:50.715Z,10.07
2022-12-03T05:26:18.134Z,11.48
2022-12-03T05:28:45.396Z,8.20
2022-12-03T05:31:13.036Z,9.80
2022-12-03T05:33:44.204Z,9.27
2022-12-03T05:36:11.921Z,11.35
2022-12-03T05:38:39.504Z,11.75
2022-12-03T05:41:25.685Z,12.65
2022-12-03T05:43:52.983Z,11.95
2022-12-03T05:46:20.463Z,14.40
2022-12-03T05:48:47.872Z,11.88
2022-12-03T05:51:15.127Z,15.25
2022-12-03T05:53:42.409Z,15.55
2022-12-03T05:56:09.815Z,16.05
2022-12-03T05:58:37.064Z,17.35
2022-12-03T06:01:04.343Z,19.92
2022-12-03T06:03:31.866Z,18.83
2022-12-03T06:06:01.332Z,17.95
2022-12-03T06:08:28.639Z,20.77
2022-12-03T06:10:55.934Z,21.67
2022-12-03T06:13:23.224Z,16.98
2022-12-03T06:15:50.574Z,21.17
2022-12-03T06:18:18.326Z,20.63
2022-12-03T06:20:45.818Z,31.50
2022-12-03T06:23:13.137Z,20.77
2022-12-03T06:25:40.425Z,19.15
2022-12-03T06:28:09.202Z,18.90
2022-12-03T06:30:36.876Z,17.15
2022-12-03T06:33:04.248Z,17.27
2022-12-03T06:35:31.550Z,18.23
2022-12-03T06:37:58.983Z,18.38
2022-12-03T06:40:26.281Z,19.25
2022-12-03T06:42:55.339Z,18.60
2022-12-03T06:45:22.653Z,15.60
2022-12-03T06:47:49.903Z,19.30
2022-12-03T06:50:17.309Z,19.38
2022-12-03T06:52:44.614Z,20.05
2022-12-03T06:55:11.901Z,16.50
2022-12-03T06:57:39.151Z,17.17
2022-12-03T07:00:08.809Z,17.38
2022-12-03T07:02:36.272Z,18.38
2022-12-03T07:05:03.882Z,17.35
2022-12-03T07:07:31.234Z,15.60
2022-12-03T07:09:58.556Z,13.82
2022-12-03T07:12:25.796Z,20.85
2022-12-03T07:14:53.371Z,18.20
2022-12-03T07:17:21.067Z,16.08
2022-12-03T07:19:48.377Z,19.05
2022-12-03T07:22:15.583Z,17.70
2022-12-03T07:24:42.935Z,15.55
2022-12-03T07:27:10.392Z,19.00
2022-12-03T07:29:37.679Z,19.00
2022-12-03T07:32:05.140Z,17.85
2022-12-03T07:34:32.393Z,15.68
2022-12-03T07:36:59.666Z,16.45
2022-12-03T07:39:26.998Z,15.77
2022-12-03T07:41:54.280Z,15.77
2022-12-03T07:44:21.551Z,17.70
2022-12-03T07:46:48.873Z,16.70
2022-12-03T07:49:16.557Z,16.05
2022-12-03T07:51:49.479Z,16.48
2022-12-03T07:54:16.752Z,15.13
2022-12-03T07:56:44.290Z,15.50
2022-12-03T07:59:11.717Z,15.13
2022-12-03T08:01:42.479Z,18.60
2022-12-03T08:04:09.834Z,17.33
2022-12-03T08:06:37.120Z,16.80
2022-12-03T08:09:04.340Z,16.13
2022-12-03T08:11:32.967Z,14.13
2022-12-03T08:14:00.259Z,12.70
2022-12-03T08:16:27.588Z,15.35
2022-12-03T08:18:57.478Z,14.27
2022-12-03T08:21:24.825Z,17.30
2022-12-03T08:23:52.149Z,15.02
2022-12-03T08:26:24.358Z,12.43
2022-12-03T08:28:52.025Z,15.25
2022-12-03T08:31:21.019Z,14.85
2022-12-03T08:33:49.850Z,16.50
2022-12-03T08:36:25.156Z,16.20
2022-12-03T08:39:04.994Z,19.50
2022-12-03T08:41:51.169Z,12.23
2022-12-03T08:44:27.128Z,13.30
2022-12-03T08:47:09.821Z,13.20
2022-12-03T08:49:37.344Z,15.15
2022-12-03T08:52:12.027Z,13.95
2022-12-03T08:54:39.276Z,16.10
2022-12-03T08:57:25.590Z,13.48
2022-12-03T08:59:55.606Z,15.38
2022-12-03T09:02:29.517Z,16.45
2022-12-03T09:04:56.938Z,15.38
2022-12-03T09:07:24.240Z,15.20
2022-12-03T09:09:51.692Z,14.23
2022-12-03T09:12:19.040Z,12.93
2022-12-03T09:14:46.391Z,14.95
2022-12-03T09:17:13.628Z,15.82
2022-12-03T09:19:46.287Z,13.95
2022-12-03T09:22:15.277Z,13.38
2022-12-03T09:24:42.597Z,14.82
2022-12-03T09:27:09.869Z,13.48
2022-12-03T09:29:37.213Z,13.43
2022-12-03T09:32:04.750Z,14.50
2022-12-03T09:34:32.055Z,16.80
2022-12-03T09:36:59.498Z,13.68
2022-12-03T09:39:26.754Z,13.77
2022-12-03T09:41:54.114Z,11.32
2022-12-03T09:44:21.481Z,13.32
2022-12-03T09:46:49.122Z,16.15
2022-12-03T09:49:17.760Z,14.40
2022-12-03T09:51:46.022Z,14.52
2022-12-03T09:54:21.717Z,11.35
2022-12-03T09:56:49.025Z,14.48
2022-12-03T09:59:16.767Z,15.48
2022-12-03T10:01:44.307Z,15.27
2022-12-03T10:04:11.909Z,12.48
2022-12-03T10:06:45.287Z,14.45
2022-12-03T10:09:14.726Z,12.43
2022-12-03T10:11:42.062Z,13.10
2022-12-03T10:14:12.357Z,15.95
2022-12-03T10:16:40.464Z,12.82
2022-12-03T10:19:10.187Z,15.60
2022-12-03T10:21:38.613Z,12.85
2022-12-03T10:24:17.871Z,15.73
2022-12-03T10:26:46.136Z,13.77
2022-12-03T10:29:28.314Z,13.48
2022-12-03T10:32:05.212Z,17.17
2022-12-03T10:34:34.027Z,15.15
2022-12-03T10:37:10.635Z,14.23
2022-12-03T10:39:56.297Z,14.13
2022-12-03T10:42:24.203Z,14.88
2022-12-03T10:45:07.147Z,14.15
2022-12-03T10:47:34.672Z,15.50
2022-12-03T10:50:04.186Z,15.02
2022-12-03T10:52:31.546Z,13.32
2022-12-03T10:54:58.919Z,16.63
2022-12-03T10:57:26.258Z,16.05
2022-12-03T10:59:53.534Z,16.45
2022-12-03T11:02:22.686Z,14.32
2022-12-03T11:04:50.583Z,19.45
2022-12-03T11:07:22.436Z,15.10
2022-12-03T11:09:51.148Z,16.65
2022-12-03T11:12:20.173Z,16.30
2022-12-03T11:14:51.105Z,16.75
2022-12-03T11:17:37.324Z,14.93
2022-12-03T11:20:16.829Z,17.83
2022-12-03T11:22:50.586Z,15.88
2022-12-03T11:25:27.063Z,18.00
2022-12-03T11:28:20.565Z,14.50
2022-12-03T11:30:53.897Z,16.75
2022-12-03T11:33:32.213Z,18.08
2022-12-03T11:36:05.636Z,17.45
2022-12-03T11:38:40.950Z,19.80
2022-12-03T11:41:09.238Z,15.02
2022-12-03T11:43:57.758Z,18.85
2022-12-03T11:46:29.546Z,14.05
2022-12-03T11:49:03.170Z,15.15
2022-12-03T11:51:41.206Z,17.60
2022-12-03T11:54:20.254Z,15.43
2022-12-03T11:56:51.572Z,14.85
2022-12-03T11:59:19.292Z,18.17
2022-12-03T12:01:48.628Z,14.65
2022-12-03T12:04:46.664Z,16.42
2022-12-03T12:07:16.016Z,15.23
2022-12-03T12:09:52.838Z,16.45
2022-12-03T12:12:31.291Z,13.77
2022-12-03T12:15:01.606Z,14.98
2022-12-03T12:17:29.930Z,15.93
2022-12-03T12:20:16.073Z,16.08
2022-12-03T12:22:43.613Z,15.68
2022-12-03T12:25:29.777Z,15.60
2022-12-03T12:27:57.993Z,17.48
2022-12-03T12:30:30.218Z,18.08
2022-12-03T12:33:13.216Z,17.08
2022-12-03T12:35:41.554Z,14.52
2022-12-03T12:38:10.918Z,17.88
2022-12-03T12:40:53.293Z,17.20
2022-12-03T12:46:47.279Z,16.42
2022-12-03T12:49:24.266Z,19.13
2022-12-03T12:51:53.757Z,17.48
2022-12-03T12:54:26.268Z,19.25
2022-12-03T12:56:56.196Z,19.55
2022-12-03T12:59:30.493Z,17.38
2022-12-03T13:02:08.496Z,16.20
2022-12-03T13:04:42.054Z,16.70
2022-12-03T13:07:31.775Z,15.13
2022-12-03T13:10:18.292Z,17.13
2022-12-03T13:12:45.588Z,18.20
2022-12-03T13:15:48.434Z,17.05
2022-12-03T13:18:29.128Z,17.23
2022-12-03T13:20:56.666Z,19.25
2022-12-03T13:23:29.570Z,15.82
2022-12-03T13:26:02.293Z,17.30
2022-12-03T13:28:41.852Z,16.73
2022-12-03T13:31:30.373Z,16.67
2022-12-03T13:34:00.968Z,15.40
2022-12-03T13:36:36.953Z,14.75
2022-12-03T13:39:17.975Z,15.13
2022-12-03T13:42:27.841Z,18.85
2022-12-03T13:44:56.973Z,12.43
2022-12-03T13:47:24.664Z,12.18
2022-12-03T13:49:59.197Z,14.32
2022-12-03T13:52:29.920Z,16.67
2022-12-03T13:55:01.943Z,15.45
2022-12-03T13:57:31.072Z,17.48
2022-12-03T13:59:58.396Z,15.50
2022-12-03T14:02:30.995Z,17.35
2022-12-03T14:05:00.485Z,13.73
2022-12-03T14:07:28.311Z,16.05
2022-12-03T14:09:58.622Z,18.70
2022-12-03T14:42:04.561Z,18.13
2022-12-03T14:44:32.252Z,18.77
2022-12-03T14:46:59.562Z,18.65
2022-12-03T14:49:29.304Z,19.48
2022-12-03T14:51:56.724Z,19.85
2022-12-03T14:54:24.234Z,19.45
